Time;durP1;ratioP1;P1;durP2;ratioP2;P2;SDS_P1;SDS_P2;PMS_P1;PMS_P2;Temp;Humidity;BMP_temperature;BMP_pressure;BME280_temperature;BME280_humidity;BME280_pressure;Samples;Min_cycle;Max_cycle;Signal;HPM_P1;HPM_P2
2022/08/20 00:00:54;;;;;;;13.07;5.60;;;;;;;;;;4972905;28;20031;-73
2022/08/20 00:03:40;;;;;;;9.85;5.82;;;;;;;;;;4956070;28;20050;-74
2022/08/20 00:06:13;;;;;;;10.23;5.50;;;;;;;;;;4973178;28;20162;-73
2022/08/20 00:08:39;;;;;;;;;;;;;;;;;;4973866;28;20053;-74
2022/08/20 00:11:07;;;;;;;12.15;5.82;;;;;;;;;;4973314;28;20419;-74
2022/08/20 00:13:40;;;;;;;12.73;6.20;;;;;;;;;;4970564;28;20041;-74
2022/08/20 00:16:06;;;;;;;;;;;;;;;;;;4917770;29;20028;-74
2022/08/20 00:18:35;;;;;;;9.93;5.40;;;;;;;;;;4934777;29;20396;-74
2022/08/20 00:21:04;;;;;;;8.82;5.15;;;;;;;;;;4940835;29;20031;-74
2022/08/20 00:23:30;;;;;;;8.98;6.00;;;;;;;;;;4953778;29;20035;-74
2022/08/20 00:25:56;;;;;;;7.20;4.95;;;;;;;;;;4953825;29;20034;-74
2022/08/20 00:28:22;;;;;;;11.48;5.60;;;;;;;;;;4953839;29;20095;-73
2022/08/20 00:30:48;;;;;;;8.25;5.20;;;;;;;;;;4953845;29;20474;-74
2022/08/20 00:33:18;;;;;;;8.68;5.38;;;;;;;;;;4953417;29;20020;-74
2022/08/20 00:35:48;;;;;;;10.98;5.43;;;;;;;;;;4953718;29;20541;-74
2022/08/20 00:38:14;;;;;;;6.00;5.07;;;;;;;;;;4952464;29;20121;-73
2022/08/20 00:40:49;;;;;;;8.32;5.45;;;;;;;;;;4952096;29;20059;-74
2022/08/20 00:43:50;;;;;;;8.75;4.70;;;;;;;;;;4951734;29;20031;-73
2022/08/20 00:46:19;;;;;;;7.68;5.03;;;;;;;;;;4951417;29;20126;-73
2022/08/20 00:48:47;;;;;;;7.88;4.85;;;;;;;;;;4952405;28;20028;-73
2022/08/20 00:51:32;;;;;;;6.32;4.95;;;;;;;;;;4956460;29;20046;-74
2022/08/20 00:54:25;;;;;;;6.55;5.10;;;;;;;;;;4956223;29;20038;-73
2022/08/20 00:57:02;;;;;;;6.55;5.07;;;;;;;;;;4956254;29;20046;-74
2022/08/20 00:59:31;;;;;;;9.85;5.20;;;;;;;;;;4936855;29;20386;-74
2022/08/20 01:01:59;;;;;;;9.20;5.25;;;;;;;;;;4936669;29;20036;-74
2022/08/20 01:04:32;;;;;;;7.28;4.90;;;;;;;;;;4936711;29;20059;-74
2022/08/20 01:06:59;;;;;;;10.38;5.93;;;;;;;;;;4936047;29;20039;-73
2022/08/20 01:09:25;;;;;;;11.20;5.43;;;;;;;;;;4930209;29;20131;-73
2022/08/20 01:11:53;;;;;;;13.50;5.00;;;;;;;;;;4936584;29;20050;-73
2022/08/20 01:17:07;;;;;;;8.20;5.35;;;;;;;;;;4936610;29;20422;-73
2022/08/20 01:19:41;;;;;;;8.48;5.25;;;;;;;;;;4936483;29;20035;-73
2022/08/20 01:25:24;;;;;;;12.00;5.28;;;;;;;;;;4936471;29;20032;-74
2022/08/20 01:27:52;;;;;;;8.07;5.13;;;;;;;;;;4935634;29;20052;-74
2022/08/20 01:30:18;;;;;;;10.02;5.22;;;;;;;;;;4936875;29;20103;-73
2022/08/20 01:32:44;;;;;;;7.95;5.15;;;;;;;;;;4936191;29;20394;-73
2022/08/20 01:35:10;;;;;;;8.02;5.75;;;;;;;;;;4936358;29;20032;-73
2022/08/20 01:37:36;;;;;;;9.52;5.88;;;;;;;;;;4936278;29;20028;-73
2022/08/20 01:40:08;;;;;;;8.65;5.55;;;;;;;;;;4936077;29;20475;-73
2022/08/20 01:42:43;;;;;;;7.22;5.22;;;;;;;;;;4936017;29;20114;-73
2022/08/20 01:45:09;;;;;;;7.10;5.18;;;;;;;;;;4936178;29;20411;-74
2022/08/20 01:47:34;;;;;;;9.43;5.70;;;;;;;;;;4935863;29;20027;-73
2022/08/20 01:50:12;;;;;;;10.07;5.75;;;;;;;;;;4936014;29;20071;-73
2022/08/20 01:52:48;;;;;;;9.43;5.18;;;;;;;;;;4935920;29;20040;-73
2022/08/20 01:55:14;;;;;;;8.50;5.78;;;;;;;;;;4935858;29;20039;-73
2022/08/20 01:57:40;;;;;;;8.13;5.35;;;;;;;;;;4940825;29;20138;-74
2022/08/20 02:00:08;;;;;;;9.13;5.63;;;;;;;;;;4954260;28;20130;-74
2022/08/20 02:02:34;;;;;;;8.07;5.60;;;;;;;;;;4954143;29;20682;-74
2022/08/20 02:05:01;;;;;;;8.32;5.45;;;;;;;;;;4954991;29;20038;-73
2022/08/20 02:07:27;;;;;;;10.88;5.55;;;;;;;;;;4954840;29;20102;-74
2022/08/20 02:09:53;;;;;;;9.10;6.10;;;;;;;;;;4954635;29;20035;-74
2022/08/20 02:12:19;;;;;;;9.80;5.45;;;;;;;;;;4954826;29;20524;-73
2022/08/20 02:14:52;;;;;;;9.18;5.55;;;;;;;;;;4954383;29;20464;-73
2022/08/20 02:17:21;;;;;;;9.98;5.45;;;;;;;;;;4954315;29;20031;-74
2022/08/20 02:19:52;;;;;;;8.30;5.80;;;;;;;;;;4954698;29;20442;-73
2022/08/20 02:22:35;;;;;;;10.93;5.82;;;;;;;;;;4954370;29;20031;-74
2022/08/20 02:25:01;;;;;;;8.20;5.30;;;;;;;;;;4954420;29;20095;-73
2022/08/20 02:27:27;;;;;;;9.27;5.60;;;;;;;;;;4954212;29;20049;-74
2022/08/20 02:29:55;;;;;;;8.43;5.35;;;;;;;;;;4954210;29;20039;-73
2022/08/20 02:32:21;;;;;;;10.07;5.50;;;;;;;;;;4954032;29;20442;-74
2022/08/20 02:34:48;;;;;;;13.10;6.00;;;;;;;;;;4954658;29;20039;-73
2022/08/20 02:37:17;;;;;;;10.77;6.15;;;;;;;;;;4954350;29;20027;-74
2022/08/20 02:39:44;;;;;;;15.65;6.30;;;;;;;;;;4953994;29;20811;-74
2022/08/20 02:42:11;;;;;;;12.77;6.30;;;;;;;;;;4954325;29;20391;-74
2022/08/20 02:44:40;;;;;;;15.93;6.50;;;;;;;;;;4953856;29;20138;-74
2022/08/20 02:47:06;;;;;;;17.25;7.53;;;;;;;;;;4953769;29;20035;-73
2022/08/20 02:49:33;;;;;;;12.27;6.88;;;;;;;;;;4954098;29;20035;-73
2022/08/20 02:51:59;;;;;;;11.63;6.40;;;;;;;;;;4953537;29;20042;-74
2022/08/20 02:54:25;;;;;;;12.90;7.00;;;;;;;;;;4953732;29;20039;-74
2022/08/20 02:56:51;;;;;;;14.05;7.55;;;;;;;;;;4954124;29;20019;-74
2022/08/20 02:59:17;;;;;;;11.25;7.10;;;;;;;;;;4953585;29;20039;-74
2022/08/20 03:01:43;;;;;;;7.20;6.43;;;;;;;;;;4954213;29;20764;-73
2022/08/20 03:04:09;;;;;;;10.80;6.88;;;;;;;;;;4954057;29;20050;-74
2022/08/20 03:06:35;;;;;;;11.00;6.30;;;;;;;;;;4954170;29;20031;-74
2022/08/20 03:09:04;;;;;;;14.05;7.50;;;;;;;;;;4954312;29;20086;-74
2022/08/20 03:11:30;;;;;;;11.63;6.85;;;;;;;;;;4953887;28;20621;-73
2022/08/20 03:13:57;;;;;;;14.23;7.38;;;;;;;;;;4954033;29;20082;-74
2022/08/20 03:16:22;;;;;;;11.90;6.97;;;;;;;;;;4954256;29;20023;-73
2022/08/20 03:18:48;;;;;;;9.02;7.28;;;;;;;;;;4954326;29;20526;-74
2022/08/20 03:21:14;;;;;;;9.90;6.93;;;;;;;;;;4955380;29;20541;-73
2022/08/20 03:23:40;;;;;;;11.80;6.53;;;;;;;;;;4956059;29;20032;-73
2022/08/20 03:26:08;;;;;;;13.10;7.00;;;;;;;;;;4952399;29;20070;-73
2022/08/20 03:28:35;;;;;;;9.63;6.53;;;;;;;;;;4952895;29;20093;-73
2022/08/20 03:31:01;;;;;;;12.77;6.85;;;;;;;;;;4952598;29;20029;-73
2022/08/20 03:33:28;;;;;;;10.95;6.75;;;;;;;;;;4952435;29;20039;-73
2022/08/20 03:35:54;;;;;;;11.68;6.88;;;;;;;;;;4953048;29;20035;-73
2022/08/20 03:38:22;;;;;;;10.57;6.78;;;;;;;;;;4952962;29;20086;-74
2022/08/20 03:40:48;;;;;;;9.70;6.95;;;;;;;;;;4952737;29;20095;-73
2022/08/20 03:43:14;;;;;;;8.85;6.45;;;;;;;;;;4952618;29;20830;-73
2022/08/20 03:45:42;;;;;;;9.85;7.13;;;;;;;;;;4953006;29;20027;-73
2022/08/20 03:48:12;;;;;;;16.55;7.65;;;;;;;;;;4953301;29;20035;-73
2022/08/20 03:50:41;;;;;;;20.98;8.23;;;;;;;;;;4952700;29;20411;-73
2022/08/20 03:53:09;;;;;;;14.70;7.47;;;;;;;;;;4952611;29;20031;-73
2022/08/20 03:55:35;;;;;;;9.15;6.47;;;;;;;;;;4950663;29;20038;-73
2022/08/20 03:58:05;;;;;;;15.02;7.32;;;;;;;;;;4952426;29;20124;-73
2022/08/20 04:00:36;;;;;;;8.73;7.00;;;;;;;;;;4935858;29;20042;-74
2022/08/20 04:03:03;;;;;;;10.18;6.97;;;;;;;;;;4952650;29;20043;-74
2022/08/20 04:05:30;;;;;;;10.05;7.05;;;;;;;;;;4952459;29;20466;-73
2022/08/20 04:07:59;;;;;;;10.02;6.53;;;;;;;;;;4952905;29;20049;-73
2022/08/20 04:10:25;;;;;;;13.13;7.25;;;;;;;;;;4952644;29;20038;-74
2022/08/20 04:12:51;;;;;;;11.23;7.47;;;;;;;;;;4952581;29;20042;-73
2022/08/20 04:15:17;;;;;;;12.32;7.85;;;;;;;;;;4952387;29;20024;-74
2022/08/20 04:17:47;;;;;;;10.30;7.88;;;;;;;;;;4952196;29;20031;-73
2022/08/20 04:20:21;;;;;;;8.20;6.85;;;;;;;;;;4952412;29;20038;-73
2022/08/20 04:22:49;;;;;;;13.80;8.20;;;;;;;;;;4952362;29;20130;-72
2022/08/20 04:25:15;;;;;;;10.98;7.93;;;;;;;;;;4951432;28;20038;-72
2022/08/20 04:27:41;;;;;;;11.27;7.63;;;;;;;;;;4951708;29;20395;-73
2022/08/20 04:30:13;;;;;;;8.65;7.65;;;;;;;;;;4952223;29;20035;-74
2022/08/20 04:32:40;;;;;;;9.63;7.38;;;;;;;;;;4935046;29;20094;-73
2022/08/20 04:35:10;;;;;;;9.32;7.68;;;;;;;;;;4952279;29;20031;-74
2022/08/20 04:37:38;;;;;;;9.23;7.50;;;;;;;;;;4950226;29;20039;-73
2022/08/20 04:42:51;;;;;;;10.52;7.25;;;;;;;;;;4951807;29;20074;-73
2022/08/20 04:45:17;;;;;;;9.00;7.70;;;;;;;;;;4951633;29;20043;-72
2022/08/20 04:47:43;;;;;;;8.88;7.60;;;;;;;;;;4951827;29;20039;-74
2022/08/20 04:50:11;;;;;;;9.50;7.80;;;;;;;;;;4951668;28;20491;-72
2022/08/20 04:52:37;;;;;;;9.05;7.03;;;;;;;;;;4949971;29;20031;-73
2022/08/20 04:55:04;;;;;;;9.63;7.40;;;;;;;;;;4934023;29;20028;-71
2022/08/20 04:57:31;;;;;;;9.55;7.45;;;;;;;;;;4948813;28;20055;-73
2022/08/20 04:59:57;;;;;;;7.60;6.38;;;;;;;;;;4952205;29;20035;-70
2022/08/20 05:02:23;;;;;;;7.55;6.78;;;;;;;;;;4952261;29;20138;-73
2022/08/20 05:04:49;;;;;;;11.63;6.55;;;;;;;;;;4949981;29;20651;-73
2022/08/20 05:07:17;;;;;;;8.75;6.30;;;;;;;;;;4952371;29;20035;-74
2022/08/20 05:09:44;;;;;;;8.07;6.05;;;;;;;;;;4952291;29;20035;-74
2022/08/20 05:12:11;;;;;;;11.20;6.03;;;;;;;;;;4951637;29;20054;-73
2022/08/20 05:14:36;;;;;;;7.93;5.38;;;;;;;;;;4951631;28;20035;-74
2022/08/20 05:17:04;;;;;;;7.00;6.10;;;;;;;;;;4952394;29;20031;-75
2022/08/20 05:19:32;;;;;;;8.70;5.40;;;;;;;;;;4954264;29;20364;-75
2022/08/20 05:21:58;;;;;;;6.47;5.55;;;;;;;;;;4954081;29;20058;-75
2022/08/20 05:24:24;;;;;;;9.48;5.20;;;;;;;;;;4953911;28;20437;-73
2022/08/20 05:26:50;;;;;;;8.52;5.95;;;;;;;;;;4953733;29;20032;-75
2022/08/20 05:29:16;;;;;;;11.27;5.15;;;;;;;;;;4953282;29;20027;-74
2022/08/20 05:31:42;;;;;;;9.82;5.53;;;;;;;;;;4954167;29;20031;-75
2022/08/20 05:34:10;;;;;;;9.00;5.53;;;;;;;;;;4954079;29;20038;-74
2022/08/20 05:36:48;;;;;;;8.93;5.53;;;;;;;;;;4957239;28;20039;-74
2022/08/20 05:39:19;;;;;;;7.80;4.97;;;;;;;;;;4957506;29;20142;-74
2022/08/20 05:41:45;;;;;;;11.75;5.97;;;;;;;;;;4953910;29;20035;-76
2022/08/20 05:44:14;;;;;;;12.80;5.85;;;;;;;;;;4955664;29;20044;-75
2022/08/20 05:46:43;;;;;;;8.98;5.45;;;;;;;;;;4957639;29;20027;-76
2022/08/20 05:49:11;;;;;;;10.38;5.25;;;;;;;;;;4940370;29;20606;-75
2022/08/20 05:51:37;;;;;;;9.05;5.70;;;;;;;;;;4957135;29;20059;-78
2022/08/20 05:54:04;;;;;;;10.98;6.03;;;;;;;;;;4939134;29;20494;-73
2022/08/20 05:56:31;;;;;;;7.63;5.20;;;;;;;;;;4939931;29;20035;-74
2022/08/20 05:59:00;;;;;;;10.48;6.35;;;;;;;;;;4939981;29;20114;-74
2022/08/20 06:01:26;;;;;;;10.82;5.47;;;;;;;;;;4956921;29;20046;-74
2022/08/20 06:06:36;;;;;;;9.63;5.30;;;;;;;;;;4956494;29;20039;-74
2022/08/20 06:09:02;;;;;;;5.82;5.22;;;;;;;;;;4956629;29;20043;-75
2022/08/20 06:11:28;;;;;;;10.00;5.65;;;;;;;;;;4956048;29;20070;-75
2022/08/20 06:13:54;;;;;;;11.20;6.20;;;;;;;;;;4956592;29;20051;-74
2022/08/20 06:16:20;;;;;;;7.75;4.95;;;;;;;;;;4957920;28;20027;-75
2022/08/20 06:18:46;;;;;;;8.90;5.28;;;;;;;;;;4972062;28;20050;-76
2022/08/20 06:21:12;;;;;;;14.18;6.00;;;;;;;;;;4952327;28;20031;-74
2022/08/20 06:23:38;;;;;;;9.52;5.32;;;;;;;;;;4954282;29;20026;-73
2022/08/20 06:26:06;;;;;;;8.75;5.47;;;;;;;;;;4938023;29;20035;-74
2022/08/20 06:28:32;;;;;;;7.05;5.13;;;;;;;;;;4955048;29;20118;-75
2022/08/20 06:30:58;;;;;;;8.32;5.28;;;;;;;;;;4953890;29;20103;-75
2022/08/20 06:33:24;;;;;;;7.00;5.18;;;;;;;;;;4954863;29;20027;-73
2022/08/20 06:35:49;;;;;;;7.65;5.18;;;;;;;;;;4955010;29;20045;-74
2022/08/20 06:38:15;;;;;;;6.57;5.55;;;;;;;;;;4954755;29;20031;-73
2022/08/20 06:40:41;;;;;;;6.70;4.97;;;;;;;;;;4955190;29;20044;-75
2022/08/20 06:43:08;;;;;;;6.38;4.70;;;;;;;;;;4937267;29;20031;-75
2022/08/20 06:45:37;;;;;;;7.18;5.00;;;;;;;;;;4954982;29;20035;-74
2022/08/20 06:48:09;;;;;;;9.73;5.78;;;;;;;;;;4954980;28;20171;-74
2022/08/20 06:50:39;;;;;;;11.75;5.28;;;;;;;;;;4954691;29;20072;-74
2022/08/20 06:53:06;;;;;;;7.30;5.00;;;;;;;;;;4954973;29;20472;-74
2022/08/20 06:55:32;;;;;;;10.60;5.00;;;;;;;;;;4955290;29;20027;-74
2022/08/20 06:58:00;;;;;;;7.95;4.93;;;;;;;;;;4954175;29;20058;-74
2022/08/20 07:00:33;;;;;;;6.68;4.93;;;;;;;;;;4954921;29;20054;-74
2022/08/20 07:03:00;;;;;;;13.48;5.25;;;;;;;;;;4954865;29;20039;-75
2022/08/20 07:05:34;;;;;;;8.10;4.90;;;;;;;;;;4954059;29;20473;-81
2022/08/20 07:08:00;;;;;;;7.70;5.00;;;;;;;;;;4954758;29;20477;-82
2022/08/20 07:10:27;;;;;;;7.50;4.90;;;;;;;;;;4955157;29;20034;-83
2022/08/20 07:12:53;;;;;;;7.85;4.70;;;;;;;;;;4954516;29;20076;-80
2022/08/20 07:15:21;;;;;;;8.45;4.63;;;;;;;;;;4955426;29;20582;-80
2022/08/20 07:17:52;;;;;;;9.73;5.28;;;;;;;;;;4955100;29;20027;-80
2022/08/20 07:20:19;;;;;;;5.63;5.00;;;;;;;;;;4935442;29;20134;-82
2022/08/20 07:22:46;;;;;;;7.05;5.20;;;;;;;;;;4952406;28;20038;-76
2022/08/20 07:25:15;;;;;;;8.13;5.25;;;;;;;;;;4953168;29;20035;-76
2022/08/20 07:27:42;;;;;;;6.18;4.80;;;;;;;;;;4952664;29;20054;-78
2022/08/20 07:32:56;;;;;;;9.90;5.10;;;;;;;;;;4949103;29;20035;-76
2022/08/20 07:35:22;;;;;;;5.75;4.70;;;;;;;;;;4936427;29;20074;-78
2022/08/20 07:37:50;;;;;;;6.55;4.85;;;;;;;;;;4954841;29;20447;-79
2022/08/20 07:40:26;;;;;;;11.30;5.05;;;;;;;;;;4954064;29;20055;-78
2022/08/20 07:42:57;;;;;;;7.03;4.97;;;;;;;;;;4953536;29;20442;-78
2022/08/20 07:45:24;;;;;;;6.93;4.75;;;;;;;;;;4953924;29;20067;-78
2022/08/20 07:47:54;;;;;;;7.38;4.85;;;;;;;;;;4954062;29;20031;-78
2022/08/20 07:50:25;;;;;;;7.75;5.25;;;;;;;;;;4953732;29;20027;-76
2022/08/20 07:52:51;;;;;;;7.20;4.93;;;;;;;;;;4953640;29;20073;-77
2022/08/20 07:55:19;;;;;;;7.65;4.45;;;;;;;;;;4953545;29;20110;-78
2022/08/20 07:57:48;;;;;;;8.63;5.30;;;;;;;;;;4953067;28;20099;-76
2022/08/20 08:00:16;;;;;;;8.65;5.22;;;;;;;;;;4953518;29;20031;-79
2022/08/20 08:02:42;;;;;;;6.15;4.90;;;;;;;;;;4954017;28;20035;-78
2022/08/20 08:05:08;;;;;;;6.38;4.85;;;;;;;;;;4953228;29;20145;-78
2022/08/20 08:07:35;;;;;;;11.40;5.38;;;;;;;;;;4954464;29;20031;-79
2022/08/20 08:10:02;;;;;;;8.65;4.93;;;;;;;;;;4953762;29;20031;-80
2022/08/20 08:12:35;;;;;;;7.00;4.85;;;;;;;;;;4953211;28;20039;-79
2022/08/20 08:15:05;;;;;;;6.53;4.70;;;;;;;;;;4953698;29;20027;-78
2022/08/20 08:17:33;;;;;;;6.18;4.75;;;;;;;;;;4953501;29;20078;-76
2022/08/20 08:19:59;;;;;;;7.20;5.18;;;;;;;;;;4936338;29;20027;-79
2022/08/20 08:22:25;;;;;;;13.05;5.28;;;;;;;;;;4936510;28;20031;-77
2022/08/20 08:24:50;;;;;;;8.32;4.97;;;;;;;;;;4954449;29;20066;-79
2022/08/20 08:27:20;;;;;;;9.65;4.75;;;;;;;;;;4953951;29;20042;-80
2022/08/20 08:29:48;;;;;;;7.88;4.80;;;;;;;;;;4953746;29;20023;-80
2022/08/20 08:32:14;;;;;;;6.78;5.10;;;;;;;;;;4954158;29;20050;-79
2022/08/20 08:34:40;;;;;;;12.18;5.22;;;;;;;;;;4936204;29;20510;-81
2022/08/20 08:37:06;;;;;;;9.02;4.88;;;;;;;;;;4953673;29;20491;-78
2022/08/20 08:39:32;;;;;;;8.45;4.72;;;;;;;;;;4936589;29;20432;-78
2022/08/20 08:42:02;;;;;;;7.03;4.40;;;;;;;;;;4953925;29;20486;-81
2022/08/20 08:44:38;;;;;;;9.30;4.68;;;;;;;;;;4953252;28;20031;-81
2022/08/20 08:47:23;;;;;;;10.10;5.47;;;;;;;;;;4954333;29;20536;-79
2022/08/20 08:49:49;;;;;;;6.70;4.68;;;;;;;;;;4952998;29;20027;-82
2022/08/20 08:52:21;;;;;;;7.78;4.97;;;;;;;;;;4936423;29;20549;-77
2022/08/20 08:54:51;;;;;;;6.05;5.40;;;;;;;;;;4953929;29;20504;-78
2022/08/20 08:57:18;;;;;;;8.65;4.82;;;;;;;;;;4935703;29;20039;-77
2022/08/20 08:59:47;;;;;;;9.45;5.13;;;;;;;;;;4936345;29;20035;-79
2022/08/20 09:02:24;;;;;;;7.47;5.05;;;;;;;;;;4953691;29;20063;-81
2022/08/20 09:04:54;;;;;;;8.43;5.03;;;;;;;;;;4952789;29;20482;-77
2022/08/20 09:07:23;;;;;;;9.25;5.20;;;;;;;;;;4953008;28;20032;-75
2022/08/20 09:09:49;;;;;;;7.78;5.40;;;;;;;;;;4952566;28;20023;-78
2022/08/20 09:12:20;;;;;;;8.20;5.38;;;;;;;;;;4938555;29;20043;-77
2022/08/20 09:14:48;;;;;;;9.98;5.50;;;;;;;;;;4956560;29;20043;-77
2022/08/20 09:17:16;;;;;;;7.05;5.97;;;;;;;;;;4954530;29;20027;-76
2022/08/20 09:19:42;;;;;;;8.35;5.18;;;;;;;;;;4952494;28;20545;-77
2022/08/20 09:22:13;;;;;;;9.35;4.97;;;;;;;;;;4952874;28;20023;-78
2022/08/20 09:24:39;;;;;;;7.53;5.43;;;;;;;;;;4929803;29;20089;-77
2022/08/20 09:27:05;;;;;;;10.98;5.00;;;;;;;;;;4938232;29;20027;-79
2022/08/20 09:29:31;;;;;;;8.30;4.63;;;;;;;;;;4957327;29;20035;-80
2022/08/20 09:32:09;;;;;;;10.15;5.18;;;;;;;;;;4956288;29;20394;-78
2022/08/20 09:34:55;;;;;;;7.57;4.80;;;;;;;;;;4955319;29;20042;-83
2022/08/20 09:37:22;;;;;;;8.48;5.10;;;;;;;;;;4956126;29;20036;-78
2022/08/20 09:39:48;;;;;;;7.60;4.85;;;;;;;;;;4956679;29;20026;-80
2022/08/20 09:42:18;;;;;;;7.72;4.80;;;;;;;;;;4956100;29;20520;-78
2022/08/20 09:44:44;;;;;;;7.30;4.68;;;;;;;;;;4955797;29;20125;-78
2022/08/20 09:47:11;;;;;;;8.10;4.55;;;;;;;;;;4955840;29;20054;-79
2022/08/20 09:49:37;;;;;;;9.57;4.85;;;;;;;;;;4955741;29;20034;-81
2022/08/20 09:52:11;;;;;;;7.15;5.05;;;;;;;;;;4939030;29;20043;-80
2022/08/20 09:54:39;;;;;;;6.22;5.10;;;;;;;;;;4956371;29;20040;-78
2022/08/20 09:57:08;;;;;;;12.70;5.30;;;;;;;;;;4955253;29;20473;-78
2022/08/20 09:59:35;;;;;;;9.23;5.05;;;;;;;;;;4955303;29;20506;-80
2022/08/20 10:02:01;;;;;;;8.80;5.13;;;;;;;;;;4955640;29;20517;-78
2022/08/20 10:04:27;;;;;;;7.10;4.25;;;;;;;;;;4955008;28;20031;-77
2022/08/20 10:06:53;;;;;;;7.97;4.50;;;;;;;;;;4938112;29;20031;-79
2022/08/20 10:09:19;;;;;;;13.52;10.85;;;;;;;;;;4955495;29;20028;-77
2022/08/20 10:11:45;;;;;;;16.63;12.40;;;;;;;;;;4954097;29;20031;-78
2022/08/20 10:14:11;;;;;;;12.18;9.23;;;;;;;;;;4956175;28;20041;-76
2022/08/20 10:16:36;;;;;;;6.05;4.43;;;;;;;;;;4955222;29;20051;-77
2022/08/20 10:19:03;;;;;;;9.57;5.18;;;;;;;;;;4955439;29;20043;-78
2022/08/20 10:21:31;;;;;;;9.52;4.97;;;;;;;;;;4954507;28;20023;-78
2022/08/20 10:23:57;;;;;;;7.75;6.88;;;;;;;;;;4955580;28;20046;-77
2022/08/20 10:26:23;;;;;;;8.25;5.18;;;;;;;;;;4954394;29;20455;-79
2022/08/20 10:28:49;;;;;;;7.05;4.53;;;;;;;;;;4955228;29;20031;-77
2022/08/20 10:31:15;;;;;;;5.57;4.97;;;;;;;;;;4955940;29;20393;-78
2022/08/20 10:33:41;;;;;;;7.57;4.45;;;;;;;;;;4955525;29;20039;-79
2022/08/20 10:36:09;;;;;;;5.90;4.63;;;;;;;;;;4938508;29;20363;-77
2022/08/20 10:38:35;;;;;;;8.30;5.05;;;;;;;;;;4955095;29;20039;-79
2022/08/20 10:41:01;;;;;;;7.90;5.07;;;;;;;;;;4954997;29;20382;-77
2022/08/20 10:43:27;;;;;;;11.80;4.68;;;;;;;;;;4955333;28;20035;-79
2022/08/20 10:45:52;;;;;;;7.75;5.03;;;;;;;;;;4955415;29;20501;-77
2022/08/20 10:48:19;;;;;;;7.88;5.03;;;;;;;;;;4954040;29;20505;-78
2022/08/20 10:50:44;;;;;;;8.80;4.80;;;;;;;;;;4954825;29;20470;-78
2022/08/20 10:53:11;;;;;;;5.78;4.28;;;;;;;;;;4955158;28;20098;-79
2022/08/20 10:55:38;;;;;;;8.48;4.75;;;;;;;;;;4954471;29;20031;-81
2022/08/20 10:58:05;;;;;;;7.63;4.75;;;;;;;;;;4954311;29;20676;-79
2022/08/20 11:00:31;;;;;;;9.60;4.90;;;;;;;;;;4955146;29;20062;-77
2022/08/20 11:02:57;;;;;;;7.55;4.45;;;;;;;;;;4944281;28;20134;-79
2022/08/20 11:05:23;;;;;;;11.13;4.88;;;;;;;;;;4948764;29;20118;-78
2022/08/20 11:07:49;;;;;;;8.07;5.38;;;;;;;;;;4954505;29;20095;-79
2022/08/20 11:10:16;;;;;;;8.27;5.00;;;;;;;;;;4954503;28;20471;-81
2022/08/20 11:12:42;;;;;;;7.25;5.13;;;;;;;;;;4937756;29;20070;-79
2022/08/20 11:15:09;;;;;;;6.72;4.95;;;;;;;;;;4954537;29;20734;-79
2022/08/20 11:17:38;;;;;;;8.38;4.85;;;;;;;;;;4953937;29;20039;-77
2022/08/20 11:20:06;;;;;;;7.88;4.43;;;;;;;;;;4954592;29;20058;-79
2022/08/20 11:22:33;;;;;;;7.18;5.30;;;;;;;;;;4954610;28;20035;-81
2022/08/20 11:24:59;;;;;;;7.05;5.10;;;;;;;;;;4953619;29;20094;-78
2022/08/20 11:27:33;;;;;;;7.60;4.50;;;;;;;;;;4953822;29;20028;-79
2022/08/20 11:29:59;;;;;;;7.85;4.95;;;;;;;;;;4953212;29;20031;-81
2022/08/20 11:32:25;;;;;;;10.25;5.13;;;;;;;;;;4954513;28;20035;-81
2022/08/20 11:34:52;;;;;;;7.90;5.10;;;;;;;;;;4954634;29;20113;-79
2022/08/20 11:37:21;;;;;;;6.47;4.97;;;;;;;;;;4954320;29;20070;-82
2022/08/20 11:39:47;;;;;;;9.50;5.50;;;;;;;;;;4936643;29;20476;-82
2022/08/20 11:42:13;;;;;;;9.48;5.43;;;;;;;;;;4954626;29;20101;-78
2022/08/20 11:44:39;;;;;;;8.98;5.95;;;;;;;;;;4954228;29;20371;-81
2022/08/20 11:47:06;;;;;;;7.45;5.25;;;;;;;;;;4954243;29;20042;-79
2022/08/20 11:49:35;;;;;;;8.10;6.10;;;;;;;;;;4937100;29;20035;-83
2022/08/20 11:52:01;;;;;;;7.18;5.60;;;;;;;;;;4954421;29;20027;-82
2022/08/20 11:54:27;;;;;;;9.13;5.57;;;;;;;;;;4954030;29;20039;-83
2022/08/20 11:56:56;;;;;;;9.90;5.57;;;;;;;;;;4954000;29;20426;-80
2022/08/20 11:59:23;;;;;;;6.88;5.25;;;;;;;;;;4952374;29;20063;-80
2022/08/20 12:01:52;;;;;;;7.05;5.57;;;;;;;;;;4953204;29;20073;-82
2022/08/20 12:04:18;;;;;;;6.30;4.63;;;;;;;;;;4952867;28;20039;-80
2022/08/20 12:06:43;;;;;;;7.57;5.18;;;;;;;;;;4954003;28;20020;-78
2022/08/20 12:09:09;;;;;;;9.95;5.82;;;;;;;;;;4953540;28;20031;-81
2022/08/20 12:11:35;;;;;;;7.28;5.65;;;;;;;;;;4954319;28;20396;-78
2022/08/20 12:14:01;;;;;;;6.28;5.40;;;;;;;;;;4954337;28;20042;-81
2022/08/20 12:16:27;;;;;;;7.82;5.40;;;;;;;;;;4950174;28;20541;-84
2022/08/20 12:18:53;;;;;;;8.60;5.28;;;;;;;;;;4948308;28;20042;-82
2022/08/20 12:21:18;;;;;;;8.07;5.45;;;;;;;;;;4953805;29;20024;-81
2022/08/20 12:23:45;;;;;;;13.98;5.70;;;;;;;;;;4937261;29;20046;-86
2022/08/20 12:26:11;;;;;;;9.00;5.00;;;;;;;;;;4954578;29;20082;-83
2022/08/20 12:28:37;;;;;;;8.02;5.15;;;;;;;;;;4936872;29;20112;-77
2022/08/20 12:31:03;;;;;;;11.88;5.63;;;;;;;;;;4954517;29;20526;-84
2022/08/20 12:33:29;;;;;;;7.25;5.43;;;;;;;;;;4954613;29;20383;-78
2022/08/20 12:35:56;;;;;;;7.15;4.75;;;;;;;;;;4954079;29;20034;-82
2022/08/20 12:38:22;;;;;;;11.43;5.28;;;;;;;;;;4954319;29;20039;-81
2022/08/20 12:40:48;;;;;;;7.22;4.85;;;;;;;;;;4953524;29;20042;-83
2022/08/20 12:43:14;;;;;;;8.63;5.10;;;;;;;;;;4953872;28;20057;-81
2022/08/20 12:45:40;;;;;;;9.25;5.15;;;;;;;;;;4954274;29;20034;-80
2022/08/20 12:48:10;;;;;;;8.85;4.75;;;;;;;;;;4953328;29;20087;-79
2022/08/20 12:50:38;;;;;;;7.93;5.50;;;;;;;;;;4953311;29;20086;-83
2022/08/20 12:53:05;;;;;;;11.88;5.13;;;;;;;;;;4937424;29;20035;-82
2022/08/20 12:55:31;;;;;;;9.68;5.30;;;;;;;;;;4954992;29;20027;-83
2022/08/20 12:57:59;;;;;;;10.68;4.93;;;;;;;;;;4954462;29;20039;-81
2022/08/20 13:00:35;;;;;;;10.20;5.60;;;;;;;;;;4955048;29;20099;-83
2022/08/20 13:03:03;;;;;;;7.93;5.07;;;;;;;;;;4937368;29;20328;-84
2022/08/20 13:05:30;;;;;;;9.90;5.13;;;;;;;;;;4954411;29;20028;-84
2022/08/20 13:07:56;;;;;;;12.15;5.40;;;;;;;;;;4954672;29;20438;-81
2022/08/20 13:10:28;;;;;;;11.13;5.45;;;;;;;;;;4954689;29;20423;-78
2022/08/20 13:12:54;;;;;;;5.80;4.88;;;;;;;;;;4954264;28;20043;-82
2022/08/20 13:15:21;;;;;;;8.48;5.20;;;;;;;;;;4954449;29;20035;-81
2022/08/20 13:17:52;;;;;;;8.68;5.07;;;;;;;;;;4954222;29;20035;-80
2022/08/20 13:20:18;;;;;;;10.82;5.20;;;;;;;;;;4938755;29;20036;-81
2022/08/20 13:22:44;;;;;;;10.57;5.15;;;;;;;;;;4936307;29;20035;-82
2022/08/20 13:25:12;;;;;;;9.88;5.60;;;;;;;;;;4951821;29;20106;-78
2022/08/20 13:27:41;;;;;;;7.80;4.60;;;;;;;;;;4954509;29;20034;-79
2022/08/20 13:30:08;;;;;;;14.20;5.13;;;;;;;;;;4954155;29;20499;-80
2022/08/20 13:32:34;;;;;;;6.38;5.50;;;;;;;;;;4953909;29;20509;-78
2022/08/20 13:35:00;;;;;;;9.00;4.90;;;;;;;;;;4954066;29;20043;-78
2022/08/20 13:37:27;;;;;;;7.70;5.28;;;;;;;;;;4949965;29;20644;-78
2022/08/20 13:39:55;;;;;;;9.30;4.93;;;;;;;;;;4949469;29;20042;-79
2022/08/20 13:42:20;;;;;;;8.18;4.78;;;;;;;;;;4948004;28;20103;-78
2022/08/20 13:44:47;;;;;;;8.82;4.68;;;;;;;;;;4952678;29;20114;-79
2022/08/20 13:47:21;;;;;;;7.88;4.90;;;;;;;;;;4952195;29;20027;-76
2022/08/20 13:49:53;;;;;;;12.95;4.90;;;;;;;;;;4952425;29;20114;-78
2022/08/20 13:52:19;;;;;;;8.70;4.72;;;;;;;;;;4951366;29;20028;-82
2022/08/20 13:54:45;;;;;;;8.30;4.50;;;;;;;;;;4934540;29;20024;-82
2022/08/20 13:57:15;;;;;;;6.25;5.15;;;;;;;;;;4952771;28;20118;-84
2022/08/20 13:59:43;;;;;;;8.52;4.40;;;;;;;;;;4956508;29;20031;-79
2022/08/20 14:02:10;;;;;;;9.55;5.20;;;;;;;;;;4952685;29;20602;-81
2022/08/20 14:04:37;;;;;;;11.38;4.80;;;;;;;;;;4935423;29;20122;-83
2022/08/20 14:07:11;;;;;;;9.57;5.18;;;;;;;;;;4957251;29;20027;-84
2022/08/20 14:09:42;;;;;;;14.38;5.03;;;;;;;;;;4957489;29;20031;-81
2022/08/20 14:12:09;;;;;;;8.30;4.32;;;;;;;;;;4956144;29;20124;-80
2022/08/20 14:14:35;;;;;;;8.48;4.68;;;;;;;;;;4956705;28;20433;-82
2022/08/20 14:17:20;;;;;;;10.32;4.78;;;;;;;;;;4957522;29;20034;-83
2022/08/20 14:19:47;;;;;;;9.07;4.40;;;;;;;;;;4956978;29;20037;-79
2022/08/20 14:22:16;;;;;;;8.82;4.60;;;;;;;;;;4939297;29;20031;-78
2022/08/20 14:24:43;;;;;;;5.82;4.38;;;;;;;;;;4956732;29;20437;-81
2022/08/20 14:27:09;;;;;;;11.32;4.55;;;;;;;;;;4957029;29;20101;-79
2022/08/20 14:29:37;;;;;;;5.85;4.57;;;;;;;;;;4957430;29;20046;-84
2022/08/20 14:32:04;;;;;;;6.15;4.75;;;;;;;;;;4957115;29;20073;-79
2022/08/20 14:34:30;;;;;;;8.75;4.18;;;;;;;;;;4937431;29;20138;-80
2022/08/20 14:37:07;;;;;;;7.75;4.43;;;;;;;;;;4957188;29;20505;-78
2022/08/20 14:39:33;;;;;;;13.43;4.45;;;;;;;;;;4956915;29;20043;-87
2022/08/20 14:41:59;;;;;;;7.60;4.15;;;;;;;;;;4956981;29;20304;-86
2022/08/20 14:44:28;;;;;;;9.77;4.43;;;;;;;;;;4939019;29;20394;-87
2022/08/20 14:46:54;;;;;;;8.30;4.45;;;;;;;;;;4957017;29;20090;-84
2022/08/20 14:49:20;;;;;;;7.20;4.13;;;;;;;;;;4956260;29;20111;-80
2022/08/20 14:51:47;;;;;;;14.75;4.40;;;;;;;;;;4956264;29;20038;-82
2022/08/20 14:54:13;;;;;;;8.38;4.85;;;;;;;;;;4956169;28;20063;-82
2022/08/20 14:56:39;;;;;;;9.73;4.20;;;;;;;;;;4956000;29;20027;-79
2022/08/20 14:59:05;;;;;;;10.70;4.20;;;;;;;;;;4936957;29;20135;-79